sensor_id;sensor_type;location;lat;lon;timestamp;temperature;humidity
316;DHT22;14128;48.686;9.738;2023-12-20T02:53:44;6.30;1.40
316;DHT22;14128;48.686;9.738;2023-12-20T02:56:12;5.30;1.40
316;DHT22;14128;48.686;9.738;2023-12-20T02:58:40;5.20;1.40
316;DHT22;14128;48.686;9.738;2023-12-20T03:01:06;5.30;1.40
316;DHT22;14128;48.686;9.738;2023-12-20T03:03:33;5.30;1.40
316;DHT22;14128;48.686;9.738;2023-12-20T03:06:00;5.30;1.40
316;DHT22;14128;48.686;9.738;2023-12-20T03:08:27;5.30;1.40
316;DHT22;14128;48.686;9.738;2023-12-20T03:10:54;5.20;1.40
316;DHT22;14128;48.686;9.738;2023-12-20T03:13:22;5.30;1.40
316;DHT22;14128;48.686;9.738;2023-12-20T03:15:48;5.30;1.40
316;DHT22;14128;48.686;9.738;2023-12-20T03:18:15;5.30;1.40
316;DHT22;14128;48.686;9.738;2023-12-20T03:20:42;5.20;1.40
316;DHT22;14128;48.686;9.738;2023-12-20T03:23:09;5.20;1.40
316;DHT22;14128;48.686;9.738;2023-12-20T03:25:36;5.30;1.40
316;DHT22;14128;48.686;9.738;2023-12-20T03:28:03;5.20;1.40
316;DHT22;14128;48.686;9.738;2023-12-20T03:30:31;5.30;1.40
316;DHT22;14128;48.686;9.738;2023-12-20T03:32:58;5.30;1.40
316;DHT22;14128;48.686;9.738;2023-12-20T03:35:25;5.30;1.40
316;DHT22;14128;48.686;9.738;2023-12-20T03:37:51;5.30;1.40
316;DHT22;14128;48.686;9.738;2023-12-20T03:40:18;5.30;1.40
316;DHT22;14128;48.686;9.738;2023-12-20T03:42:45;5.30;1.40
316;DHT22;14128;48.686;9.738;2023-12-20T03:45:12;5.30;1.40
316;DHT22;14128;48.686;9.738;2023-12-20T03:47:40;5.20;1.40
316;DHT22;14128;48.686;9.738;2023-12-20T03:50:07;5.20;1.40
316;DHT22;14128;48.686;9.738;2023-12-20T03:52:34;5.20;1.40
316;DHT22;14128;48.686;9.738;2023-12-20T03:55:01;5.20;1.40
316;DHT22;14128;48.686;9.738;2023-12-20T03:57:28;5.10;1.40
316;DHT22;14128;48.686;9.738;2023-12-20T03:59:55;5.20;1.40
316;DHT22;14128;48.686;9.738;2023-12-20T04:02:22;5.10;1.40
316;DHT22;14128;48.686;9.738;2023-12-20T04:04:50;5.20;1.40
316;DHT22;14128;48.686;9.738;2023-12-20T04:07:18;5.20;1.40
316;DHT22;14128;48.686;9.738;2023-12-20T04:09:45;5.20;1.40
316;DHT22;14128;48.686;9.738;2023-12-20T04:12:13;5.10;1.40
316;DHT22;14128;48.686;9.738;2023-12-20T04:14:40;5.10;1.40
316;DHT22;14128;48.686;9.738;2023-12-20T04:17:07;5.10;1.40
316;DHT22;14128;48.686;9.738;2023-12-20T04:19:34;5.10;1.40
316;DHT22;14128;48.686;9.738;2023-12-20T04:22:02;5.20;1.40
316;DHT22;14128;48.686;9.738;2023-12-20T04:24:29;5.10;1.40
316;DHT22;14128;48.686;9.738;2023-12-20T04:26:55;5.10;1.40
316;DHT22;14128;48.686;9.738;2023-12-20T04:29:22;5.10;1.40
316;DHT22;14128;48.686;9.738;2023-12-20T04:31:49;5.10;1.40
316;DHT22;14128;48.686;9.738;2023-12-20T04:34:16;5.10;1.40
316;DHT22;14128;48.686;9.738;2023-12-20T04:36:43;5.00;1.40
316;DHT22;14128;48.686;9.738;2023-12-20T04:39:12;5.10;1.40
316;DHT22;14128;48.686;9.738;2023-12-20T04:41:39;5.10;1.40
316;DHT22;14128;48.686;9.738;2023-12-20T04:44:06;5.10;1.40
316;DHT22;14128;48.686;9.738;2023-12-20T04:46:33;5.10;1.40
316;DHT22;14128;48.686;9.738;2023-12-20T04:49:00;5.10;1.40
316;DHT22;14128;48.686;9.738;2023-12-20T04:51:27;5.10;1.40
316;DHT22;14128;48.686;9.738;2023-12-20T04:53:54;5.10;1.40
316;DHT22;14128;48.686;9.738;2023-12-20T04:56:22;5.20;1.40
316;DHT22;14128;48.686;9.738;2023-12-20T04:58:49;5.00;1.40
316;DHT22;14128;48.686;9.738;2023-12-20T05:01:16;5.10;1.40
316;DHT22;14128;48.686;9.738;2023-12-20T05:03:42;5.10;1.40
316;DHT22;14128;48.686;9.738;2023-12-20T05:06:09;5.00;1.40
316;DHT22;14128;48.686;9.738;2023-12-20T05:08:36;5.10;1.40
316;DHT22;14128;48.686;9.738;2023-12-20T05:11:03;5.00;1.40
316;DHT22;14128;48.686;9.738;2023-12-20T05:13:32;5.00;1.40
316;DHT22;14128;48.686;9.738;2023-12-20T05:15:59;5.00;1.40
316;DHT22;14128;48.686;9.738;2023-12-20T05:18:25;5.00;1.40
316;DHT22;14128;48.686;9.738;2023-12-20T05:20:52;5.10;1.40
316;DHT22;14128;48.686;9.738;2023-12-20T05:23:19;5.00;1.40
316;DHT22;14128;48.686;9.738;2023-12-20T05:25:46;5.00;1.40
316;DHT22;14128;48.686;9.738;2023-12-20T05:28:14;5.00;1.40
316;DHT22;14128;48.686;9.738;2023-12-20T05:30:43;5.00;1.40
316;DHT22;14128;48.686;9.738;2023-12-20T05:33:09;5.00;1.40
316;DHT22;14128;48.686;9.738;2023-12-20T05:35:36;4.90;1.40
316;DHT22;14128;48.686;9.738;2023-12-20T05:38:03;5.00;1.40
316;DHT22;14128;48.686;9.738;2023-12-20T05:40:30;4.90;1.40
316;DHT22;14128;48.686;9.738;2023-12-20T05:42:57;5.00;1.40
316;DHT22;14128;48.686;9.738;2023-12-20T05:45:24;4.90;1.40
316;DHT22;14128;48.686;9.738;2023-12-20T05:47:52;4.90;1.40
316;DHT22;14128;48.686;9.738;2023-12-20T05:50:19;4.90;1.40
316;DHT22;14128;48.686;9.738;2023-12-20T05:52:46;4.90;1.40
316;DHT22;14128;48.686;9.738;2023-12-20T05:55:13;4.90;1.40
316;DHT22;14128;48.686;9.738;2023-12-20T05:57:40;4.80;1.40
316;DHT22;14128;48.686;9.738;2023-12-20T06:00:09;4.80;1.40
316;DHT22;14128;48.686;9.738;2023-12-20T06:02:36;4.80;1.40
316;DHT22;14128;48.686;9.738;2023-12-20T06:05:06;4.80;1.40
316;DHT22;14128;48.686;9.738;2023-12-20T06:07:33;4.80;1.40
316;DHT22;14128;48.686;9.738;2023-12-20T06:10:00;4.80;1.40
316;DHT22;14128;48.686;9.738;2023-12-20T06:12:26;4.80;1.40
316;DHT22;14128;48.686;9.738;2023-12-20T06:14:54;4.80;1.40
316;DHT22;14128;48.686;9.738;2023-12-20T06:17:21;4.80;1.40
316;DHT22;14128;48.686;9.738;2023-12-20T06:19:47;4.80;1.40
316;DHT22;14128;48.686;9.738;2023-12-20T06:22:16;4.80;1.40
316;DHT22;14128;48.686;9.738;2023-12-20T06:24:43;4.80;1.40
316;DHT22;14128;48.686;9.738;2023-12-20T06:27:09;4.80;1.40
316;DHT22;14128;48.686;9.738;2023-12-20T06:29:36;4.80;1.40
316;DHT22;14128;48.686;9.738;2023-12-20T06:32:04;4.80;1.40
316;DHT22;14128;48.686;9.738;2023-12-20T06:34:31;4.80;1.40
316;DHT22;14128;48.686;9.738;2023-12-20T06:36:57;4.80;1.40
316;DHT22;14128;48.686;9.738;2023-12-20T06:39:26;4.80;1.40
316;DHT22;14128;48.686;9.738;2023-12-20T06:41:53;4.80;1.40
316;DHT22;14128;48.686;9.738;2023-12-20T06:44:20;4.80;1.40
316;DHT22;14128;48.686;9.738;2023-12-20T06:46:47;4.70;1.40
316;DHT22;14128;48.686;9.738;2023-12-20T06:49:13;4.80;1.40
316;DHT22;14128;48.686;9.738;2023-12-20T06:51:40;4.80;1.40
316;DHT22;14128;48.686;9.738;2023-12-20T06:54:07;4.80;1.40
316;DHT22;14128;48.686;9.738;2023-12-20T06:56:36;4.70;1.40
316;DHT22;14128;48.686;9.738;2023-12-20T06:59:02;4.80;1.40
316;DHT22;14128;48.686;9.738;2023-12-20T07:01:29;4.80;1.40
316;DHT22;14128;48.686;9.738;2023-12-20T07:03:56;4.80;1.40
316;DHT22;14128;48.686;9.738;2023-12-20T07:06:23;4.80;1.40
316;DHT22;14128;48.686;9.738;2023-12-20T07:08:51;4.80;1.40
316;DHT22;14128;48.686;9.738;2023-12-20T07:11:18;4.80;1.40
316;DHT22;14128;48.686;9.738;2023-12-20T07:13:46;4.80;1.40
316;DHT22;14128;48.686;9.738;2023-12-20T07:16:14;4.80;1.40
316;DHT22;14128;48.686;9.738;2023-12-20T07:18:41;4.80;1.40
316;DHT22;14128;48.686;9.738;2023-12-20T07:21:08;4.80;1.40
316;DHT22;14128;48.686;9.738;2023-12-20T07:23:34;4.80;1.40
316;DHT22;14128;48.686;9.738;2023-12-20T07:26:01;4.80;1.40
316;DHT22;14128;48.686;9.738;2023-12-20T07:28:29;4.80;1.40
316;DHT22;14128;48.686;9.738;2023-12-20T07:33:25;4.80;1.40
316;DHT22;14128;48.686;9.738;2023-12-20T07:35:51;4.90;1.40
316;DHT22;14128;48.686;9.738;2023-12-20T07:38:18;4.80;1.40
316;DHT22;14128;48.686;9.738;2023-12-20T07:40:45;4.90;1.40
316;DHT22;14128;48.686;9.738;2023-12-20T07:43:12;4.80;1.40
316;DHT22;14128;48.686;9.738;2023-12-20T07:45:39;4.80;1.40
316;DHT22;14128;48.686;9.738;2023-12-20T07:48:08;4.90;1.40
316;DHT22;14128;48.686;9.738;2023-12-20T07:50:35;4.80;1.40
316;DHT22;14128;48.686;9.738;2023-12-20T07:53:02;4.90;1.40
316;DHT22;14128;48.686;9.738;2023-12-20T07:55:29;4.80;1.40
316;DHT22;14128;48.686;9.738;2023-12-20T07:57:57;4.90;1.40
316;DHT22;14128;48.686;9.738;2023-12-20T08:00:24;4.90;1.40
316;DHT22;14128;48.686;9.738;2023-12-20T08:02:50;4.90;1.40
316;DHT22;14128;48.686;9.738;2023-12-20T08:05:19;5.00;1.40
316;DHT22;14128;48.686;9.738;2023-12-20T08:07:45;5.00;1.40
316;DHT22;14128;48.686;9.738;2023-12-20T08:10:12;5.00;1.40
316;DHT22;14128;48.686;9.738;2023-12-20T08:12:39;5.10;1.40
316;DHT22;14128;48.686;9.738;2023-12-20T08:15:07;5.00;1.40
316;DHT22;14128;48.686;9.738;2023-12-20T08:17:33;5.10;1.40
316;DHT22;14128;48.686;9.738;2023-12-20T08:20:00;5.10;1.40
316;DHT22;14128;48.686;9.738;2023-12-20T08:22:29;5.10;1.40
316;DHT22;14128;48.686;9.738;2023-12-20T08:24:55;5.10;1.40
316;DHT22;14128;48.686;9.738;2023-12-20T08:27:22;5.00;1.40
316;DHT22;14128;48.686;9.738;2023-12-20T08:29:51;5.00;1.40
316;DHT22;14128;48.686;9.738;2023-12-20T08:32:18;5.00;1.40
316;DHT22;14128;48.686;9.738;2023-12-20T08:34:44;5.00;1.40
316;DHT22;14128;48.686;9.738;2023-12-20T08:37:11;5.10;1.40
316;DHT22;14128;48.686;9.738;2023-12-20T08:42:09;5.00;1.40
316;DHT22;14128;48.686;9.738;2023-12-20T08:56:53;5.00;1.40
316;DHT22;14128;48.686;9.738;2023-12-20T08:59:19;5.10;1.40
316;DHT22;14128;48.686;9.738;2023-12-20T09:01:46;5.00;1.40
316;DHT22;14128;48.686;9.738;2023-12-20T09:04:14;5.00;1.40
316;DHT22;14128;48.686;9.738;2023-12-20T09:06:40;5.00;1.40
316;DHT22;14128;48.686;9.738;2023-12-20T09:09:07;5.00;1.40
316;DHT22;14128;48.686;9.738;2023-12-20T09:11:40;5.00;1.40
316;DHT22;14128;48.686;9.738;2023-12-20T09:14:08;5.00;1.40
316;DHT22;14128;48.686;9.738;2023-12-20T09:16:35;5.10;1.40
316;DHT22;14128;48.686;9.738;2023-12-20T09:19:02;5.10;1.40
316;DHT22;14128;48.686;9.738;2023-12-20T09:21:29;5.20;1.40
316;DHT22;14128;48.686;9.738;2023-12-20T09:23:56;5.10;1.40
316;DHT22;14128;48.686;9.738;2023-12-20T09:26:22;5.10;1.40
316;DHT22;14128;48.686;9.738;2023-12-20T09:28:49;5.10;1.40
316;DHT22;14128;48.686;9.738;2023-12-20T09:31:17;5.30;1.40
316;DHT22;14128;48.686;9.738;2023-12-20T09:33:44;5.30;1.40
316;DHT22;14128;48.686;9.738;2023-12-20T09:36:11;5.30;1.40
316;DHT22;14128;48.686;9.738;2023-12-20T09:38:38;5.30;1.40
316;DHT22;14128;48.686;9.738;2023-12-20T09:41:05;5.20;1.40
316;DHT22;14128;48.686;9.738;2023-12-20T09:43:35;5.10;1.40
316;DHT22;14128;48.686;9.738;2023-12-20T09:46:06;4.90;1.40
316;DHT22;14128;48.686;9.738;2023-12-20T09:48:35;4.80;1.40
316;DHT22;14128;48.686;9.738;2023-12-20T09:51:03;5.00;1.40
316;DHT22;14128;48.686;9.738;2023-12-20T09:53:31;5.00;1.40
316;DHT22;14128;48.686;9.738;2023-12-20T09:55:59;5.00;1.40
316;DHT22;14128;48.686;9.738;2023-12-20T09:58:26;5.10;1.40
316;DHT22;14128;48.686;9.738;2023-12-20T10:00:54;5.10;1.40
316;DHT22;14128;48.686;9.738;2023-12-20T10:03:25;5.10;1.40
316;DHT22;14128;48.686;9.738;2023-12-20T10:05:54;5.10;1.40
316;DHT22;14128;48.686;9.738;2023-12-20T10:08:24;5.00;1.40
316;DHT22;14128;48.686;9.738;2023-12-20T10:10:51;5.00;1.40
316;DHT22;14128;48.686;9.738;2023-12-20T10:13:17;4.90;1.40
316;DHT22;14128;48.686;9.738;2023-12-20T10:15:44;4.90;1.40
316;DHT22;14128;48.686;9.738;2023-12-20T10:18:12;4.90;1.40
316;DHT22;14128;48.686;9.738;2023-12-20T10:20:40;5.00;1.40
316;DHT22;14128;48.686;9.738;2023-12-20T10:23:09;5.10;1.40
316;DHT22;14128;48.686;9.738;2023-12-20T10:25:36;5.10;1.40
316;DHT22;14128;48.686;9.738;2023-12-20T10:28:10;5.30;1.40
316;DHT22;14128;48.686;9.738;2023-12-20T10:30:37;5.30;1.40
316;DHT22;14128;48.686;9.738;2023-12-20T10:33:06;5.30;1.40
316;DHT22;14128;48.686;9.738;2023-12-20T10:35:33;5.40;1.40
316;DHT22;14128;48.686;9.738;2023-12-20T10:38:03;5.30;1.40
316;DHT22;14128;48.686;9.738;2023-12-20T10:40:34;5.20;1.40
316;DHT22;14128;48.686;9.738;2023-12-20T10:43:03;4.80;1.40
316;DHT22;14128;48.686;9.738;2023-12-20T10:45:30;4.70;1.40
316;DHT22;14128;48.686;9.738;2023-12-20T10:47:58;4.60;1.40
316;DHT22;14128;48.686;9.738;2023-12-20T10:50:26;4.40;1.40
316;DHT22;14128;48.686;9.738;2023-12-20T10:52:54;4.50;1.40
316;DHT22;14128;48.686;9.738;2023-12-20T10:55:22;4.70;1.40
316;DHT22;14128;48.686;9.738;2023-12-20T10:57:51;4.90;1.40
316;DHT22;14128;48.686;9.738;2023-12-20T11:00:18;5.00;1.40
316;DHT22;14128;48.686;9.738;2023-12-20T11:02:45;5.00;1.40
316;DHT22;14128;48.686;9.738;2023-12-20T11:05:20;5.20;1.40
316;DHT22;14128;48.686;9.738;2023-12-20T11:07:51;5.20;1.40
316;DHT22;14128;48.686;9.738;2023-12-20T11:10:23;5.20;1.40
316;DHT22;14128;48.686;9.738;2023-12-20T11:12:56;5.10;1.40
316;DHT22;14128;48.686;9.738;2023-12-20T11:15:25;4.90;1.40
316;DHT22;14128;48.686;9.738;2023-12-20T11:17:55;4.70;1.40
316;DHT22;14128;48.686;9.738;2023-12-20T11:20:23;4.50;1.40
316;DHT22;14128;48.686;9.738;2023-12-20T11:22:54;4.30;1.40
316;DHT22;14128;48.686;9.738;2023-12-20T11:25:21;4.40;1.40
316;DHT22;14128;48.686;9.738;2023-12-20T11:28:09;4.40;1.40
316;DHT22;14128;48.686;9.738;2023-12-20T11:30:45;4.40;1.40
316;DHT22;14128;48.686;9.738;2023-12-20T11:33:13;4.40;1.40
316;DHT22;14128;48.686;9.738;2023-12-20T11:35:40;4.40;1.40
316;DHT22;14128;48.686;9.738;2023-12-20T11:38:08;4.60;1.40
316;DHT22;14128;48.686;9.738;2023-12-20T11:40:35;4.50;1.40
316;DHT22;14128;48.686;9.738;2023-12-20T11:43:03;4.50;1.40
316;DHT22;14128;48.686;9.738;2023-12-20T11:45:33;4.70;1.40
316;DHT22;14128;48.686;9.738;2023-12-20T11:48:01;4.60;1.40
316;DHT22;14128;48.686;9.738;2023-12-20T11:50:29;4.80;1.40
316;DHT22;14128;48.686;9.738;2023-12-20T11:52:56;4.90;1.40
316;DHT22;14128;48.686;9.738;2023-12-20T11:55:24;4.80;1.40
316;DHT22;14128;48.686;9.738;2023-12-20T11:57:50;4.90;1.40
316;DHT22;14128;48.686;9.738;2023-12-20T12:00:18;4.80;1.40
316;DHT22;14128;48.686;9.738;2023-12-20T12:02:57;5.00;1.40
316;DHT22;14128;48.686;9.738;2023-12-20T12:05:23;4.90;1.40
316;DHT22;14128;48.686;9.738;2023-12-20T12:07:51;5.10;1.40
316;DHT22;14128;48.686;9.738;2023-12-20T12:10:18;4.90;1.40
316;DHT22;14128;48.686;9.738;2023-12-20T12:12:46;5.00;1.40
316;DHT22;14128;48.686;9.738;2023-12-20T12:15:14;5.10;1.40
316;DHT22;14128;48.686;9.738;2023-12-20T12:17:41;4.80;1.40
316;DHT22;14128;48.686;9.738;2023-12-20T12:20:09;4.80;1.40
316;DHT22;14128;48.686;9.738;2023-12-20T12:22:37;5.00;1.40
316;DHT22;14128;48.686;9.738;2023-12-20T12:25:10;5.00;1.40
316;DHT22;14128;48.686;9.738;2023-12-20T12:27:40;4.80;1.40
316;DHT22;14128;48.686;9.738;2023-12-20T12:32:35;4.80;1.40
316;DHT22;14128;48.686;9.738;2023-12-20T12:35:03;4.90;1.40
316;DHT22;14128;48.686;9.738;2023-12-20T12:37:34;4.70;1.40
316;DHT22;14128;48.686;9.738;2023-12-20T12:40:00;4.70;1.40
316;DHT22;14128;48.686;9.738;2023-12-20T12:42:27;4.60;1.40
316;DHT22;14128;48.686;9.738;2023-12-20T12:44:55;4.60;1.40
316;DHT22;14128;48.686;9.738;2023-12-20T12:47:22;4.60;1.40
316;DHT22;14128;48.686;9.738;2023-12-20T12:49:51;4.60;1.40
316;DHT22;14128;48.686;9.738;2023-12-20T12:52:18;4.70;1.40
316;DHT22;14128;48.686;9.738;2023-12-20T12:54:46;4.80;1.40
316;DHT22;14128;48.686;9.738;2023-12-20T12:57:14;4.80;1.40
316;DHT22;14128;48.686;9.738;2023-12-20T12:59:41;4.60;1.40
316;DHT22;14128;48.686;9.738;2023-12-20T13:02:09;4.80;1.40
316;DHT22;14128;48.686;9.738;2023-12-20T13:04:36;4.70;1.40
316;DHT22;14128;48.686;9.738;2023-12-20T13:07:03;4.70;1.40
316;DHT22;14128;48.686;9.738;2023-12-20T13:09:30;4.70;1.40
316;DHT22;14128;48.686;9.738;2023-12-20T13:11:59;4.70;1.40
316;DHT22;14128;48.686;9.738;2023-12-20T13:14:29;4.60;1.40
316;DHT22;14128;48.686;9.738;2023-12-20T13:16:55;4.60;1.40
316;DHT22;14128;48.686;9.738;2023-12-20T13:19:22;4.70;1.40
316;DHT22;14128;48.686;9.738;2023-12-20T13:21:49;4.80;1.40
316;DHT22;14128;48.686;9.738;2023-12-20T13:24:16;4.70;1.40
316;DHT22;14128;48.686;9.738;2023-12-20T13:26:44;4.90;1.40
316;DHT22;14128;48.686;9.738;2023-12-20T13:29:12;5.10;1.40
316;DHT22;14128;48.686;9.738;2023-12-20T13:31:39;5.10;1.40
316;DHT22;14128;48.686;9.738;2023-12-20T13:34:06;5.00;1.40
316;DHT22;14128;48.686;9.738;2023-12-20T13:36:33;5.10;1.40
316;DHT22;14128;48.686;9.738;2023-12-20T13:39:02;5.10;1.40
316;DHT22;14128;48.686;9.738;2023-12-20T13:41:30;4.90;1.40
316;DHT22;14128;48.686;9.738;2023-12-20T13:43:57;5.00;1.40
316;DHT22;14128;48.686;9.738;2023-12-20T13:46:25;5.00;1.40
316;DHT22;14128;48.686;9.738;2023-12-20T13:48:53;4.60;1.40
316;DHT22;14128;48.686;9.738;2023-12-20T13:51:19;4.80;1.40
316;DHT22;14128;48.686;9.738;2023-12-20T13:53:47;4.70;1.40
316;DHT22;14128;48.686;9.738;2023-12-20T13:56:14;4.70;1.40
316;DHT22;14128;48.686;9.738;2023-12-20T13:58:41;4.70;1.40
316;DHT22;14128;48.686;9.738;2023-12-20T14:01:09;4.40;1.40
316;DHT22;14128;48.686;9.738;2023-12-20T14:03:38;4.70;1.40
316;DHT22;14128;48.686;9.738;2023-12-20T14:06:06;4.60;1.40
316;DHT22;14128;48.686;9.738;2023-12-20T14:08:33;4.70;1.40
316;DHT22;14128;48.686;9.738;2023-12-20T14:11:01;4.60;1.40
316;DHT22;14128;48.686;9.738;2023-12-20T14:13:28;4.60;1.40
316;DHT22;14128;48.686;9.738;2023-12-20T14:15:55;4.50;1.40
316;DHT22;14128;48.686;9.738;2023-12-20T14:18:22;4.50;1.40
316;DHT22;14128;48.686;9.738;2023-12-20T14:20:50;4.40;1.40
316;DHT22;14128;48.686;9.738;2023-12-20T14:25:44;4.40;1.40
316;DHT22;14128;48.686;9.738;2023-12-20T14:28:11;4.30;1.40
316;DHT22;14128;48.686;9.738;2023-12-20T14:30:39;4.20;1.40
316;DHT22;14128;48.686;9.738;2023-12-20T14:33:06;4.30;1.40
316;DHT22;14128;48.686;9.738;2023-12-20T14:35:33;4.30;1.40
316;DHT22;14128;48.686;9.738;2023-12-20T14:38:01;4.40;1.40
316;DHT22;14128;48.686;9.738;2023-12-20T14:40:28;4.30;1.40
316;DHT22;14128;48.686;9.738;2023-12-20T14:42:55;4.30;1.40
316;DHT22;14128;48.686;9.738;2023-12-20T14:45:22;4.30;1.40
316;DHT22;14128;48.686;9.738;2023-12-20T14:47:49;4.40;1.40
316;DHT22;14128;48.686;9.738;2023-12-20T14:50:16;4.40;1.40
316;DHT22;14128;48.686;9.738;2023-12-20T14:52:44;4.30;1.40
316;DHT22;14128;48.686;9.738;2023-12-20T14:55:13;4.30;1.40
316;DHT22;14128;48.686;9.738;2023-12-20T14:57:40;4.20;1.40
316;DHT22;14128;48.686;9.738;2023-12-20T15:00:07;4.20;1.40
316;DHT22;14128;48.686;9.738;2023-12-20T15:02:34;4.10;1.40
316;DHT22;14128;48.686;9.738;2023-12-20T15:05:01;4.00;1.40
316;DHT22;14128;48.686;9.738;2023-12-20T15:07:28;3.90;1.40
316;DHT22;14128;48.686;9.738;2023-12-20T15:09:55;3.90;1.40
316;DHT22;14128;48.686;9.738;2023-12-20T15:12:23;3.80;1.40
316;DHT22;14128;48.686;9.738;2023-12-20T15:14:50;3.80;1.40
316;DHT22;14128;48.686;9.738;2023-12-20T15:17:16;3.90;1.40
316;DHT22;14128;48.686;9.738;2023-12-20T15:19:43;3.90;1.40
316;DHT22;14128;48.686;9.738;2023-12-20T15:22:10;3.80;1.40
316;DHT22;14128;48.686;9.738;2023-12-20T15:24:37;3.90;1.40
316;DHT22;14128;48.686;9.738;2023-12-20T15:27:06;4.10;1.40
316;DHT22;14128;48.686;9.738;2023-12-20T15:29:34;4.00;1.40
316;DHT22;14128;48.686;9.738;2023-12-20T15:32:01;4.10;1.40
316;DHT22;14128;48.686;9.738;2023-12-20T15:34:29;4.10;1.40
316;DHT22;14128;48.686;9.738;2023-12-20T15:39:23;4.10;1.40
316;DHT22;14128;48.686;9.738;2023-12-20T15:41:50;4.20;1.40
316;DHT22;14128;48.686;9.738;2023-12-20T15:44:17;4.20;1.40
316;DHT22;14128;48.686;9.738;2023-12-20T15:46:45;4.10;1.40
316;DHT22;14128;48.686;9.738;2023-12-20T15:49:12;4.20;1.40
316;DHT22;14128;48.686;9.738;2023-12-20T15:51:41;4.10;1.40
316;DHT22;14128;48.686;9.738;2023-12-20T15:54:08;4.10;1.40
316;DHT22;14128;48.686;9.738;2023-12-20T15:56:35;4.10;1.40
316;DHT22;14128;48.686;9.738;2023-12-20T15:59:02;4.10;1.40
316;DHT22;14128;48.686;9.738;2023-12-20T16:01:29;4.10;1.40
316;DHT22;14128;48.686;9.738;2023-12-20T16:03:58;4.10;1.40
316;DHT22;14128;48.686;9.738;2023-12-20T16:06:25;4.20;1.40
316;DHT22;14128;48.686;9.738;2023-12-20T16:08:51;4.00;1.40
316;DHT22;14128;48.686;9.738;2023-12-20T16:11:18;4.10;1.40
316;DHT22;14128;48.686;9.738;2023-12-20T16:13:45;4.10;1.40
316;DHT22;14128;48.686;9.738;2023-12-20T16:16:12;4.10;1.40
316;DHT22;14128;48.686;9.738;2023-12-20T16:18:39;4.00;1.40
316;DHT22;14128;48.686;9.738;2023-12-20T16:21:07;4.10;1.40
316;DHT22;14128;48.686;9.738;2023-12-20T16:23:34;4.10;1.40
316;DHT22;14128;48.686;9.738;2023-12-20T16:26:01;4.10;1.40
316;DHT22;14128;48.686;9.738;2023-12-20T16:28:28;4.00;1.40
316;DHT22;14128;48.686;9.738;2023-12-20T16:30:55;4.10;1.40
316;DHT22;14128;48.686;9.738;2023-12-20T16:33:22;4.10;1.40
316;DHT22;14128;48.686;9.738;2023-12-20T16:35:49;4.20;1.40
316;DHT22;14128;48.686;9.738;2023-12-20T16:38:17;4.10;1.40
316;DHT22;14128;48.686;9.738;2023-12-20T16:40:44;4.10;1.40
316;DHT22;14128;48.686;9.738;2023-12-20T16:43:11;4.00;1.40
316;DHT22;14128;48.686;9.738;2023-12-20T16:45:38;4.10;1.40
316;DHT22;14128;48.686;9.738;2023-12-20T16:48:05;4.00;1.40
316;DHT22;14128;48.686;9.738;2023-12-20T16:50:32;4.10;1.40
316;DHT22;14128;48.686;9.738;2023-12-20T16:52:59;4.10;1.40
316;DHT22;14128;48.686;9.738;2023-12-20T16:55:28;4.10;1.40
316;DHT22;14128;48.686;9.738;2023-12-20T17:00:23;4.10;1.40
316;DHT22;14128;48.686;9.738;2023-12-20T17:02:52;4.10;1.40
316;DHT22;14128;48.686;9.738;2023-12-20T17:05:18;4.10;1.40
316;DHT22;14128;48.686;9.738;2023-12-20T17:07:45;4.10;1.40
316;DHT22;14128;48.686;9.738;2023-12-20T17:10:12;4.10;1.40
316;DHT22;14128;48.686;9.738;2023-12-20T17:12:40;4.00;1.40
316;DHT22;14128;48.686;9.738;2023-12-20T17:15:07;4.00;1.40
316;DHT22;14128;48.686;9.738;2023-12-20T17:17:34;4.00;1.40
316;DHT22;14128;48.686;9.738;2023-12-20T17:20:01;4.00;1.40
316;DHT22;14128;48.686;9.738;2023-12-20T17:22:29;4.00;1.40
316;DHT22;14128;48.686;9.738;2023-12-20T17:24:55;4.10;1.40
316;DHT22;14128;48.686;9.738;2023-12-20T17:27:22;4.00;1.40
316;DHT22;14128;48.686;9.738;2023-12-20T17:29:51;4.00;1.40
316;DHT22;14128;48.686;9.738;2023-12-20T17:32:17;4.00;1.40
316;DHT22;14128;48.686;9.738;2023-12-20T17:34:44;4.10;1.40
316;DHT22;14128;48.686;9.738;2023-12-20T17:37:11;4.10;1.40
316;DHT22;14128;48.686;9.738;2023-12-20T17:39:38;4.00;1.40
316;DHT22;14128;48.686;9.738;2023-12-20T17:42:05;4.10;1.40
316;DHT22;14128;48.686;9.738;2023-12-20T17:44:32;4.00;1.40
316;DHT22;14128;48.686;9.738;2023-12-20T17:47:00;4.00;1.40
316;DHT22;14128;48.686;9.738;2023-12-20T17:49:27;4.00;1.40
316;DHT22;14128;48.686;9.738;2023-12-20T17:51:56;4.10;1.40
316;DHT22;14128;48.686;9.738;2023-12-20T17:54:23;3.90;1.40
316;DHT22;14128;48.686;9.738;2023-12-20T17:56:51;4.10;1.40
316;DHT22;14128;48.686;9.738;2023-12-20T17:59:18;4.10;1.40
316;DHT22;14128;48.686;9.738;2023-12-20T18:01:45;4.10;1.40
316;DHT22;14128;48.686;9.738;2023-12-20T18:04:13;4.10;1.40
316;DHT22;14128;48.686;9.738;2023-12-20T18:06:39;4.10;1.40
316;DHT22;14128;48.686;9.738;2023-12-20T18:09:06;4.10;1.40
316;DHT22;14128;48.686;9.738;2023-12-20T18:11:33;4.20;1.40
316;DHT22;14128;48.686;9.738;2023-12-20T18:13:59;4.20;1.40
316;DHT22;14128;48.686;9.738;2023-12-20T18:16:26;4.20;1.40
316;DHT22;14128;48.686;9.738;2023-12-20T18:18:53;4.20;1.40
316;DHT22;14128;48.686;9.738;2023-12-20T18:21:21;4.30;1.40
316;DHT22;14128;48.686;9.738;2023-12-20T18:23:48;4.20;1.40
316;DHT22;14128;48.686;9.738;2023-12-20T18:26:15;4.10;1.40
316;DHT22;14128;48.686;9.738;2023-12-20T18:28:42;4.20;1.40
316;DHT22;14128;48.686;9.738;2023-12-20T18:31:08;4.20;1.40
316;DHT22;14128;48.686;9.738;2023-12-20T18:36:03;4.20;1.40
316;DHT22;14128;48.686;9.738;2023-12-20T18:38:32;4.20;1.40
316;DHT22;14128;48.686;9.738;2023-12-20T18:40:59;4.20;1.40
316;DHT22;14128;48.686;9.738;2023-12-20T18:43:26;4.30;1.40
316;DHT22;14128;48.686;9.738;2023-12-20T18:45:53;4.10;1.40
316;DHT22;14128;48.686;9.738;2023-12-20T18:48:20;4.20;1.40
316;DHT22;14128;48.686;9.738;2023-12-20T18:50:47;4.20;1.40
316;DHT22;14128;48.686;9.738;2023-12-20T18:53:14;4.20;1.40
316;DHT22;14128;48.686;9.738;2023-12-20T18:55:43;4.20;1.40
316;DHT22;14128;48.686;9.738;2023-12-20T18:58:13;4.30;1.40
316;DHT22;14128;48.686;9.738;2023-12-20T19:00:40;4.20;1.40
316;DHT22;14128;48.686;9.738;2023-12-20T19:03:07;4.30;1.40
316;DHT22;14128;48.686;9.738;2023-12-20T19:05:34;4.30;1.40
316;DHT22;14128;48.686;9.738;2023-12-20T19:08:00;4.30;1.40
316;DHT22;14128;48.686;9.738;2023-12-20T19:12:56;4.20;1.40
316;DHT22;14128;48.686;9.738;2023-12-20T19:15:22;4.30;1.40
316;DHT22;14128;48.686;9.738;2023-12-20T19:17:49;4.30;1.40
316;DHT22;14128;48.686;9.738;2023-12-20T19:20:16;4.30;1.40
316;DHT22;14128;48.686;9.738;2023-12-20T19:22:44;4.30;1.40
316;DHT22;14128;48.686;9.738;2023-12-20T19:25:12;4.30;1.40
316;DHT22;14128;48.686;9.738;2023-12-20T19:27:39;4.30;1.40
316;DHT22;14128;48.686;9.738;2023-12-20T19:30:08;4.40;1.40
316;DHT22;14128;48.686;9.738;2023-12-20T19:32:35;4.40;1.40
316;DHT22;14128;48.686;9.738;2023-12-20T19:35:03;4.30;1.40
316;DHT22;14128;48.686;9.738;2023-12-20T19:37:30;4.40;1.40
316;DHT22;14128;48.686;9.738;2023-12-20T19:39:56;4.40;1.40
316;DHT22;14128;48.686;9.738;2023-12-20T19:42:23;4.30;1.40
316;DHT22;14128;48.686;9.738;2023-12-20T19:44:51;4.40;1.40
316;DHT22;14128;48.686;9.738;2023-12-20T19:47:19;4.40;1.40
316;DHT22;14128;48.686;9.738;2023-12-20T19:49:46;4.40;1.40
316;DHT22;14128;48.686;9.738;2023-12-20T19:52:12;4.40;1.40
316;DHT22;14128;48.686;9.738;2023-12-20T19:54:39;4.40;1.40
316;DHT22;14128;48.686;9.738;2023-12-20T19:57:06;4.50;1.40
316;DHT22;14128;48.686;9.738;2023-12-20T19:59:33;4.50;1.40